Time;durP1;ratioP1;P1;durP2;ratioP2;P2;SDS_P1;SDS_P2;PMS_P1;PMS_P2;Temp;Humidity;BMP_temperature;BMP_pressure;BME280_temperature;BME280_humidity;BME280_pressure;Samples;Min_cycle;Max_cycle;Signal;HPM_P1;HPM_P2
2021/04/05 00:01:31;;;;;;;28.77;12.10;;;;;;;5.26;100.00;101355.41;10541354;28;20122;-78
2021/04/05 00:06:31;;;;;;;28.27;11.65;;;;;;;5.12;100.00;101311.84;10546164;28;20028;-77
2021/04/05 00:11:32;;;;;;;37.15;12.23;;;;;;;4.95;100.00;101270.50;10562637;28;20039;-78
2021/04/05 00:16:32;;;;;;;36.45;13.27;;;;;;;5.23;100.00;101305.09;10561935;28;20428;-79
2021/04/05 00:21:33;;;;;;;37.10;12.55;;;;;;;5.13;100.00;101291.97;10561347;28;20035;-78
2021/04/05 00:26:33;;;;;;;27.77;12.93;;;;;;;4.89;100.00;101247.59;10524007;28;20034;-79
2021/04/05 00:31:34;;;;;;;34.53;13.45;;;;;;;5.17;100.00;101271.50;10563276;28;20087;-78
2021/04/05 00:36:34;;;;;;;36.97;13.55;;;;;;;5.17;100.00;101271.50;10561883;28;20047;-77
2021/04/05 00:41:39;;;;;;;41.33;13.48;;;;;;;5.14;100.00;101256.06;10544017;28;20514;-79
2021/04/05 00:46:39;;;;;;;32.35;14.77;;;;;;;4.92;100.00;101206.81;10542808;28;20019;-77
2021/04/05 00:51:40;;;;;;;33.70;13.98;;;;;;;5.16;100.00;101245.81;10524032;28;20040;-77
2021/04/05 00:56:40;;;;;;;45.97;15.93;;;;;;;5.14;100.00;101240.75;10557411;28;20031;-77
2021/04/05 01:01:41;;;;;;;39.03;16.20;;;;;;;4.98;100.00;101210.91;10582401;28;20066;-77
2021/04/05 01:06:41;;;;;;;41.90;14.90;;;;;;;4.86;100.00;101165.19;10566829;28;20261;-77
2021/04/05 01:11:42;;;;;;;37.55;16.83;;;;;;;5.05;100.00;101181.78;10556598;28;20050;-77
2021/04/05 01:16:44;;;;;;;45.83;16.15;;;;;;;5.36;100.00;101226.47;10558980;28;20062;-78
2021/04/05 01:21:47;;;;;;;;;;;;;;;5.40;100.00;101205.94;10536935;28;20444;-79
2021/04/05 01:26:47;;;;;;;52.90;17.45;;;;;;;5.08;100.00;101130.25;10538534;28;19936;-79
2021/04/05 01:31:48;;;;;;;53.08;17.88;;;;;;;5.19;100.00;101135.28;10536921;28;20040;-78
2021/04/05 01:36:48;;;;;;;39.70;17.85;;;;;;;5.49;100.00;101187.97;10539615;28;20031;-79
2021/04/05 01:41:49;;;;;;;49.53;18.65;;;;;;;5.39;100.00;101142.72;10539442;28;20163;-79
2021/04/05 01:46:49;;;;;;;49.30;18.58;;;;;;;5.54;100.00;101151.38;10553329;28;20168;-79
2021/04/05 01:51:50;;;;;;;46.42;18.48;;;;;;;5.57;100.00;101134.66;10538769;28;20043;-77
2021/04/05 01:56:50;;;;;;;50.15;20.95;;;;;;;5.34;100.00;101078.53;10537356;28;20046;-78
2021/04/05 02:01:51;;;;;;;47.20;20.10;;;;;;;5.74;100.00;101123.91;10539020;28;20036;-79
2021/04/05 02:06:51;;;;;;;48.55;20.05;;;;;;;5.73;100.00;101106.22;10538598;28;20032;-78
2021/04/05 02:11:52;;;;;;;62.63;21.88;;;;;;;5.08;100.00;100964.13;10536770;28;20048;-78
2021/04/05 02:16:52;;;;;;;59.50;25.27;;;;;;;6.07;100.00;101077.75;10511382;28;20056;-79
2021/04/05 02:21:53;;;;;;;59.65;24.13;;;;;;;6.09;100.00;101064.78;10511792;28;20039;-78
2021/04/05 02:26:54;;;;;;;72.47;25.73;;;;;;;6.00;100.00;101026.47;10514171;28;20043;-78
2021/04/05 02:31:55;;;;;;;69.82;23.23;;;;;;;6.07;100.00;101018.69;10511976;28;20024;-79
2021/04/05 02:36:56;;;;;;;60.00;23.33;;;;;;;6.47;100.00;101042.47;10512280;28;20039;-78
2021/04/05 02:41:56;;;;;;;67.72;23.35;;;;;;;6.40;100.00;101026.06;10507320;28;20395;-79
2021/04/05 02:46:57;;;;;;;60.10;22.70;;;;;;;6.15;100.00;100961.50;10519276;28;20035;-78
2021/04/05 02:51:58;;;;;;;62.42;23.95;;;;;;;6.65;100.00;101022.41;10523971;28;20035;-77
2021/04/05 02:56:59;;;;;;;56.65;23.60;;;;;;;6.71;100.00;101015.75;10521573;28;20048;-77
2021/04/05 03:01:59;;;;;;;57.97;22.90;;;;;;;6.64;100.00;101010.13;10500482;28;20043;-78
2021/04/05 03:07:00;;;;;;;63.78;23.00;;;;;;;6.32;100.00;100947.94;10526439;28;20047;-79
2021/04/05 03:12:01;;;;;;;57.78;22.42;;;;;;;6.47;100.00;100967.28;10497773;28;20507;-78
2021/04/05 03:17:01;;;;;;;90.82;24.63;;;;;;;6.62;100.00;100974.72;10500072;28;20378;-77
2021/04/05 03:22:04;;;;;;;65.05;24.00;;;;;;;6.63;100.00;100965.56;10504914;28;20040;-77
2021/04/05 03:27:05;;;;;;;62.28;24.55;;;;;;;6.66;100.00;100959.53;10503424;28;20028;-77
2021/04/05 03:32:07;;;;;;;69.38;25.30;;;;;;;6.29;100.00;100902.97;10504286;28;20028;-78
2021/04/05 03:37:09;;;;;;;70.28;24.45;;;;;;;6.30;100.00;100904.56;10523692;28;20109;-79
2021/04/05 03:42:15;;;;;;;59.30;25.13;;;;;;;6.60;100.00;100944.72;10525235;28;20817;-79
2021/04/05 03:47:34;;;;;;;57.33;23.38;;;;;;;6.72;100.00;100936.72;10528545;28;20101;-78
2021/04/05 03:52:38;;;;;;;74.38;25.05;;;;;;;6.43;100.00;100875.06;10524149;28;20399;-78
2021/04/05 03:57:47;;;;;;;64.10;22.45;;;;;;;6.50;100.00;100864.56;10498168;28;20043;-78
2021/04/05 04:02:50;;;;;;;85.43;26.25;;;;;;;6.56;100.00;100863.22;10499775;28;20432;-78
2021/04/05 04:12:56;;;;;;;;;;;;;;;6.93;100.00;100898.25;10505372;28;20031;-79
2021/04/05 04:17:56;;;;;;;59.85;22.75;;;;;;;6.73;100.00;100851.56;10516881;28;20281;-78
2021/04/05 04:23:00;;;;;;;61.67;22.58;;;;;;;7.02;100.00;100877.47;10500517;28;20040;-79
2021/04/05 04:28:00;;;;;;;53.35;21.58;;;;;;;7.17;100.00;100882.19;10497978;28;21500;-78
2021/04/05 04:33:02;;;;;;;58.13;22.15;;;;;;;7.29;100.00;100877.94;10515827;28;20039;-80
2021/04/05 04:38:03;;;;;;;46.25;20.50;;;;;;;7.33;100.00;100862.69;10516378;28;20043;-79
2021/04/05 04:43:05;;;;;;;45.30;19.40;;;;;;;7.21;100.00;100833.91;10514982;28;20496;-79
2021/04/05 04:48:06;;;;;;;49.20;19.60;;;;;;;7.44;100.00;100842.31;10514432;28;20031;-78
2021/04/05 04:53:07;;;;;;;30.13;13.77;;;;;;;7.60;100.00;100829.75;10513540;28;20278;-80
2021/04/05 04:58:08;;;;;;;28.60;12.38;;;;;;;7.90;100.00;100832.16;10484492;28;20119;-79
2021/04/05 05:03:09;;;;;;;31.73;11.65;;;;;;;8.09;100.00;100825.34;10513385;28;20036;-79
2021/04/05 05:08:09;;;;;;;24.60;10.45;;;;;;;7.60;100.00;100738.28;10512115;28;20388;-78
2021/04/05 05:13:10;;;;;;;23.13;11.13;;;;;;;8.25;100.00;100828.88;10513799;28;20115;-79
2021/04/05 05:18:11;;;;;;;29.42;11.32;;;;;;;7.93;100.00;100764.16;10489366;28;20076;-78
2021/04/05 05:23:12;;;;;;;26.63;11.38;;;;;;;8.19;100.00;100800.63;10531337;28;20248;-78
2021/04/05 05:28:15;;;;;;;21.27;10.18;;;;;;;8.29;100.00;100800.13;10537391;28;20146;-78
2021/04/05 05:33:19;;;;;;;30.63;12.30;;;;;;;8.07;100.00;100744.13;10542496;28;20028;-79
2021/04/05 05:38:22;;;;;;;22.27;11.65;;;;;;;8.12;100.00;100741.22;10537550;28;20027;-77
2021/04/05 05:43:46;;;;;;;26.75;11.65;;;;;;;8.40;100.00;100795.84;10553255;28;20039;-78
2021/04/05 05:49:14;;;;;;;24.70;10.80;;;;;;;8.21;100.00;100744.53;10536990;28;20552;-77
2021/04/05 05:54:36;;;;;;;39.47;13.30;;;;;;;8.48;100.00;100769.09;10558546;28;20694;-78
2021/04/05 05:59:45;;;;;;;24.20;10.43;;;;;;;8.53;100.00;100760.75;10550521;28;20043;-78
2021/04/05 06:05:20;;;;;;;13.95;5.03;;;;;;;8.51;93.45;100843.81;10553272;28;20135;-79
2021/04/05 06:10:26;;;;;;;15.90;3.22;;;;;;;7.34;93.60;100789.00;10554177;28;20518;-78
2021/04/05 06:15:28;;;;;;;16.95;3.03;;;;;;;7.23;98.62;100852.41;10559319;28;20507;-78
2021/04/05 06:20:57;;;;;;;18.30;2.87;;;;;;;7.01;100.00;100877.78;10558540;28;20477;-78
2021/04/05 06:26:11;;;;;;;25.45;3.35;;;;;;;6.63;100.00;100844.69;10551934;28;20126;-76
2021/04/05 06:31:30;;;;;;;17.33;3.13;;;;;;;6.50;100.00;100832.34;10524306;28;20103;-79
2021/04/05 06:36:53;;;;;;;19.42;3.35;;;;;;;6.62;100.00;100856.53;10540340;28;20044;-78
2021/04/05 06:42:05;;;;;;;15.75;4.05;;;;;;;6.36;100.00;100827.25;10548289;28;20043;-79
2021/04/05 06:47:05;;;;;;;14.52;2.10;;;;;;;6.50;100.00;100875.31;10539409;28;20028;-76
2021/04/05 06:52:38;;;;;;;13.88;3.55;;;;;;;6.47;100.00;100870.59;10555287;28;20044;-76
2021/04/05 06:57:46;;;;;;;;;;;;;;;6.40;97.91;100875.69;10552120;28;20500;-78
2021/04/05 07:03:05;;;;;;;12.55;2.70;;;;;;;6.43;100.00;100901.91;10533511;28;19919;-78
2021/04/05 07:08:15;;;;;;;8.93;2.33;;;;;;;5.87;100.00;100889.50;10548020;28;20040;-77
2021/04/05 07:13:29;;;;;;;8.98;2.15;;;;;;;5.92;100.00;100948.31;10539645;28;20023;-79
2021/04/05 07:18:52;;;;;;;6.80;1.52;;;;;;;5.94;100.00;100966.81;10553865;28;20056;-77
2021/04/05 07:24:19;;;;;;;5.00;1.10;;;;;;;5.42;100.00;100957.09;10534099;28;20092;-76
2021/04/05 07:29:25;;;;;;;8.70;1.25;;;;;;;5.61;100.00;101004.19;10536177;28;20040;-80
2021/04/05 07:34:31;;;;;;;13.35;1.92;;;;;;;5.38;100.00;101014.34;10525116;28;20335;-77
2021/04/05 07:39:34;;;;;;;12.40;1.90;;;;;;;5.33;100.00;100996.53;10555486;27;20467;-77
2021/04/05 07:44:52;;;;;;;12.45;2.38;;;;;;;5.38;100.00;100999.03;10528194;28;20380;-78
2021/04/05 07:49:59;;;;;;;15.65;3.42;;;;;;;5.17;96.42;101014.22;10541226;28;20040;-77
2021/04/05 07:55:02;;;;;;;28.48;3.90;;;;;;;5.23;95.86;101055.84;10542520;28;20096;-77
2021/04/05 08:00:08;;;;;;;24.33;3.97;;;;;;;5.17;90.77;101057.09;10543037;28;20036;-77
2021/04/05 08:05:48;;;;;;;23.63;3.92;;;;;;;5.03;85.82;101036.63;10562362;28;20464;-76
2021/04/05 08:11:19;;;;;;;20.17;3.47;;;;;;;5.16;84.93;101088.47;10561428;28;20040;-77
2021/04/05 08:16:44;;;;;;;15.15;3.78;;;;;;;5.29;83.87;101108.16;10559653;28;20050;-77
2021/04/05 08:22:26;;;;;;;15.00;2.65;;;;;;;4.76;82.26;101053.00;10564578;28;20396;-76
2021/04/05 08:28:06;;;;;;;15.27;2.60;;;;;;;5.16;76.92;101122.53;10365198;28;20459;-77
2021/04/05 08:33:39;;;;;;;8.52;2.38;;;;;;;5.39;75.92;101118.59;10530400;28;20065;-76
2021/04/05 08:38:58;;;;;;;;;;;;;;;5.41;71.55;101148.56;10501385;28;20048;-78
2021/04/05 08:44:19;;;;;;;13.25;2.47;;;;;;;5.11;74.61;101111.97;10550895;28;19916;-77
2021/04/05 08:49:20;;;;;;;15.27;2.55;;;;;;;5.55;73.89;101169.03;10539300;28;20028;-76
2021/04/05 08:54:31;;;;;;;16.73;2.88;;;;;;;5.17;73.49;101148.22;10523226;28;20043;-78
2021/04/05 08:59:49;;;;;;;20.85;3.25;;;;;;;5.30;76.75;101169.50;10543584;28;20138;-78
2021/04/05 09:04:53;;;;;;;15.35;2.58;;;;;;;4.98;78.66;101146.63;10541379;28;20045;-77
2021/04/05 09:09:56;;;;;;;17.35;3.03;;;;;;;5.15;77.55;101169.19;10538987;28;20039;-79
2021/04/05 09:15:21;;;;;;;14.70;2.00;;;;;;;5.25;72.57;101214.47;10551791;28;20090;-80
2021/04/05 09:20:44;;;;;;;13.80;2.08;;;;;;;5.34;73.13;101212.56;10541077;28;20044;-80
2021/04/05 09:26:03;;;;;;;12.55;2.08;;;;;;;5.93;70.79;101217.44;10540349;28;20098;-79
2021/04/05 09:31:41;;;;;;;18.63;2.92;;;;;;;5.99;69.61;101221.56;10559178;28;20031;-79
2021/04/05 09:37:04;;;;;;;13.13;2.40;;;;;;;5.78;70.32;101242.84;10554888;28;21251;-77
2021/04/05 09:42:13;;;;;;;16.42;3.10;;;;;;;6.00;66.82;101241.16;10546745;28;20079;-78
2021/04/05 09:47:27;;;;;;;17.60;3.55;;;;;;;5.89;68.12;101243.34;10553613;28;20035;-79
2021/04/05 09:52:52;;;;;;;18.00;2.78;;;;;;;5.67;67.76;101225.53;10555274;27;20038;-78
2021/04/05 09:57:58;;;;;;;11.20;3.17;;;;;;;5.64;67.32;101274.41;10534889;27;20051;-76
2021/04/05 10:03:07;;;;;;;7.25;1.73;;;;;;;5.87;64.48;101289.25;10511027;28;20051;-80
2021/04/05 10:08:16;;;;;;;9.50;2.03;;;;;;;5.38;64.71;101208.16;10540663;28;20053;-80
2021/04/05 10:13:22;;;;;;;10.15;2.13;;;;;;;5.28;63.44;101197.75;10520044;28;20038;-79
2021/04/05 10:18:22;;;;;;;17.90;2.28;;;;;;;5.05;62.03;101160.34;10513466;28;20054;-78
2021/04/05 10:24:04;;;;;;;17.55;3.55;;;;;;;5.62;55.91;101180.06;10506304;28;20614;-77
2021/04/05 10:29:30;;;;;;;17.50;3.03;;;;;;;6.55;55.42;101296.78;10508345;28;20455;-77
2021/04/05 10:34:37;;;;;;;8.60;2.47;;;;;;;6.32;50.64;101266.66;10538796;28;20031;-78
2021/04/05 10:39:46;;;;;;;10.93;2.47;;;;;;;6.87;49.23;101340.31;10527530;28;20043;-80
2021/04/05 10:44:47;;;;;;;21.50;2.83;;;;;;;6.70;51.11;101325.03;10530379;28;20024;-80
2021/04/05 10:49:52;;;;;;;18.30;2.53;;;;;;;6.30;50.66;101285.78;10515810;28;20460;-78
2021/04/05 10:55:05;;;;;;;11.38;2.20;;;;;;;6.37;46.64;101265.69;10523872;28;20126;-75
2021/04/05 11:00:07;;;;;;;14.57;2.50;;;;;;;6.98;44.83;101331.59;10515279;28;20032;-78
2021/04/05 11:05:21;;;;;;;12.02;2.10;;;;;;;7.30;42.74;101331.28;10514593;28;20027;-77
2021/04/05 11:10:30;;;;;;;10.60;2.00;;;;;;;7.43;38.78;101362.50;10540207;28;20036;-80
2021/04/05 11:15:50;;;;;;;10.75;1.70;;;;;;;7.67;40.82;101363.84;10520437;28;20056;-78
2021/04/05 11:21:01;;;;;;;14.98;1.80;;;;;;;6.96;42.30;101273.88;10501239;28;20036;-76
2021/04/05 11:26:10;;;;;;;10.35;1.85;;;;;;;6.78;42.41;101314.25;10525764;28;20114;-76
2021/04/05 11:31:19;;;;;;;12.05;2.38;;;;;;;7.41;42.59;101391.66;10512885;28;20704;-79
2021/04/05 11:36:22;;;;;;;10.38;2.50;;;;;;;7.30;42.39;101368.94;10495045;28;20099;-79
2021/04/05 11:41:53;;;;;;;13.05;1.92;;;;;;;6.60;39.85;101245.56;10473507;28;20029;-77
2021/04/05 11:47:47;;;;;;;;;;;;;;;;;;;;;
2021/04/05 11:53:17;;;;;;;5.68;1.00;;;;;;;8.02;34.57;101279.00;10492949;28;20068;-81
2021/04/05 11:58:28;;;;;;;8.15;1.20;;;;;;;8.57;33.37;101394.84;10491458;28;20031;-78
2021/04/05 12:03:52;;;;;;;10.05;1.88;;;;;;;8.24;47.31;101392.88;10473506;28;20101;-78
2021/04/05 12:08:55;;;;;;;8.25;1.48;;;;;;;7.30;50.29;101385.06;10498721;28;20204;-76
2021/04/05 12:13:59;;;;;;;10.30;1.50;;;;;;;7.32;50.85;101415.13;10487459;28;20035;-79
2021/04/05 12:19:01;;;;;;;13.73;2.33;;;;;;;7.37;48.56;101406.88;10503576;28;20071;-79
2021/04/05 12:24:04;;;;;;;10.47;2.33;;;;;;;7.50;45.77;101357.44;10520928;28;20043;-80
2021/04/05 12:29:07;;;;;;;7.57;1.88;;;;;;;7.82;43.80;101355.19;10521452;28;20330;-79
2021/04/05 12:34:10;;;;;;;17.42;2.33;;;;;;;7.97;40.64;101386.91;10502843;28;20145;-79
2021/04/05 12:39:12;;;;;;;12.57;2.10;;;;;;;8.34;43.45;101392.47;10493298;28;20028;-78
2021/04/05 12:44:32;;;;;;;11.43;1.52;;;;;;;8.05;45.22;101425.66;10516397;28;20464;-78
2021/04/05 12:49:44;;;;;;;5.25;1.20;;;;;;;8.10;41.15;101416.59;10510330;28;20040;-76
2021/04/05 12:54:46;;;;;;;4.35;1.10;;;;;;;7.90;41.40;101370.50;10481090;28;20526;-80
2021/04/05 12:59:47;;;;;;;6.05;1.98;;;;;;;8.59;42.09;101416.84;10502207;28;20024;-84
2021/04/05 13:04:59;;;;;;;13.27;1.75;;;;;;;8.55;41.66;101399.78;10486436;28;20044;-79
2021/04/05 13:10:05;;;;;;;8.67;1.87;;;;;;;7.77;42.87;101430.72;10508061;28;20068;-79
2021/04/05 13:15:43;;;;;;;6.95;1.20;;;;;;;7.88;38.44;101337.72;10518983;28;20371;-80
2021/04/05 13:20:47;;;;;;;6.63;0.80;;;;;;;8.60;36.18;101434.59;10540467;28;20085;-80
2021/04/05 13:26:00;;;;;;;6.57;1.05;;;;;;;7.86;35.51;101385.72;10508917;28;20027;-79
2021/04/05 13:31:11;;;;;;;5.35;1.00;;;;;;;8.33;36.10;101447.47;10536472;28;20107;-82
2021/04/05 13:36:16;;;;;;;9.50;1.85;;;;;;;7.93;50.16;101476.72;10521810;28;20039;-80
2021/04/05 13:41:19;;;;;;;15.88;1.38;;;;;;;5.91;62.70;101510.25;10523669;28;20088;-79
2021/04/05 13:46:20;;;;;;;7.78;1.02;;;;;;;4.63;68.17;101462.56;10549956;28;20077;-81
2021/04/05 13:51:22;;;;;;;5.15;0.93;;;;;;;4.72;62.92;101485.91;10539517;28;20028;-77
2021/04/05 13:56:28;;;;;;;5.40;1.20;;;;;;;5.58;61.84;101495.59;10518273;28;20403;-78
2021/04/05 14:01:31;;;;;;;9.00;1.10;;;;;;;5.09;61.90;101373.00;10518559;28;20464;-81
2021/04/05 14:06:34;;;;;;;5.13;0.95;;;;;;;6.19;58.77;101542.25;10539713;28;20035;-80
2021/04/05 14:11:35;;;;;;;;;;;;;;;5.37;69.96;101533.66;10524394;28;20032;-78
2021/04/05 14:16:40;;;;;;;4.25;1.13;;;;;;;4.48;68.78;101503.03;10546030;28;19922;-78
2021/04/05 14:21:48;;;;;;;4.38;1.00;;;;;;;4.45;68.59;101509.00;10550501;28;20042;-79
2021/04/05 14:26:50;;;;;;;6.20;1.50;;;;;;;4.18;70.84;101441.03;10531554;28;20047;-80
2021/04/05 14:31:52;;;;;;;6.87;1.47;;;;;;;4.80;69.05;101461.09;10537739;28;20035;-78
2021/04/05 14:36:58;;;;;;;10.85;2.45;;;;;;;5.07;66.47;101450.22;10521224;28;20385;-79
2021/04/05 14:42:13;;;;;;;10.27;1.40;;;;;;;5.08;62.87;101483.97;10522532;28;20024;-79
2021/04/05 14:47:20;;;;;;;8.05;1.73;;;;;;;5.03;64.47;101513.59;10540638;28;21788;-79
2021/04/05 14:52:27;;;;;;;11.82;2.13;;;;;;;5.21;67.85;101524.41;10515780;28;20412;-80
2021/04/05 14:57:34;;;;;;;8.90;1.52;;;;;;;5.41;64.79;101470.28;10521915;28;20036;-80
2021/04/05 15:02:36;;;;;;;14.48;2.05;;;;;;;5.71;65.84;101559.06;10540304;28;20413;-81
2021/04/05 15:07:39;;;;;;;13.18;1.83;;;;;;;5.25;67.30;101503.94;10540963;28;20048;-80
2021/04/05 15:12:41;;;;;;;10.10;1.38;;;;;;;5.16;64.60;101537.94;10536276;28;20032;-81
2021/04/05 15:17:46;;;;;;;14.93;2.72;;;;;;;4.45;65.02;101530.44;10497590;28;20123;-79
2021/04/05 15:22:54;;;;;;;11.60;2.70;;;;;;;4.42;63.33;101505.06;10532580;28;20034;-80
2021/04/05 15:27:56;;;;;;;18.55;2.53;;;;;;;4.69;69.66;101561.53;10524327;28;20028;-80
2021/04/05 15:32:59;;;;;;;8.10;1.87;;;;;;;4.27;64.91;101485.84;10520197;28;20131;-80
2021/04/05 15:38:05;;;;;;;14.95;2.25;;;;;;;3.80;65.84;101468.03;10519146;28;20319;-81
2021/04/05 15:43:14;;;;;;;11.40;2.55;;;;;;;4.26;65.88;101529.75;10518215;28;20032;-78
2021/04/05 15:48:42;;;;;;;14.13;2.05;;;;;;;4.56;65.08;101494.31;10547703;28;20044;-79
2021/04/05 15:53:48;;;;;;;13.13;2.00;;;;;;;5.24;64.51;101534.50;10543324;28;20036;-79
2021/04/05 15:58:53;;;;;;;12.82;2.65;;;;;;;5.73;58.42;101524.69;10538633;28;20024;-78
2021/04/05 16:04:01;;;;;;;15.52;2.33;;;;;;;6.27;50.87;101505.78;10539202;28;20081;-79
2021/04/05 16:09:05;;;;;;;11.63;2.13;;;;;;;6.32;46.17;101498.38;10520719;28;20519;-86
2021/04/05 16:14:12;;;;;;;10.50;2.40;;;;;;;6.43;45.37;101484.66;10544295;28;20357;-78
2021/04/05 16:19:15;;;;;;;9.23;1.60;;;;;;;7.12;40.63;101551.81;10540921;28;20452;-81
2021/04/05 16:24:23;;;;;;;12.80;1.83;;;;;;;6.85;43.01;101498.41;10536974;28;20210;-82
2021/04/05 16:29:25;;;;;;;14.00;2.47;;;;;;;6.52;45.64;101488.13;10544239;28;20035;-80
2021/04/05 16:34:30;;;;;;;19.47;2.97;;;;;;;6.72;49.57;101576.16;10539658;28;20469;-80
2021/04/05 16:39:39;;;;;;;10.93;1.52;;;;;;;6.50;47.89;101471.53;10550549;28;20281;-80
2021/04/05 16:45:03;;;;;;;16.05;1.80;;;;;;;6.31;45.85;101504.84;10508238;28;20031;-79
2021/04/05 16:50:08;;;;;;;6.70;1.65;;;;;;;6.17;47.03;101539.09;10555315;28;20831;-80
2021/04/05 16:55:17;;;;;;;7.20;1.52;;;;;;;5.61;45.80;101511.06;10560195;28;20031;-81
2021/04/05 17:00:24;;;;;;;14.32;1.75;;;;;;;5.50;49.42;101548.88;10540276;28;20440;-85
2021/04/05 17:05:34;;;;;;;13.43;2.10;;;;;;;5.37;51.77;101576.56;10518432;28;20467;-82
2021/04/05 17:10:41;;;;;;;23.52;3.17;;;;;;;4.57;53.99;101485.19;10556040;28;20035;-84
2021/04/05 17:15:42;;;;;;;11.93;2.13;;;;;;;4.88;53.12;101564.84;10540192;28;20047;-85
2021/04/05 17:20:50;;;;;;;7.10;1.92;;;;;;;4.85;50.41;101533.31;10513452;28;20044;-85
2021/04/05 17:25:55;;;;;;;13.68;1.95;;;;;;;4.76;50.60;101567.25;10505545;28;20047;-81
2021/04/05 17:37:14;;;;;;;7.78;1.50;;;;;;;4.20;54.89;101529.84;10528276;28;20484;-83
2021/04/05 17:42:19;;;;;;;11.95;1.92;;;;;;;4.44;55.79;101609.13;10499118;28;20027;-81
2021/04/05 17:47:38;;;;;;;15.75;2.35;;;;;;;4.41;55.83;101604.38;10514387;28;20063;-84
2021/04/05 17:53:17;;;;;;;18.35;2.40;;;;;;;4.32;58.05;101614.19;10513382;28;20040;-83
2021/04/05 17:58:31;;;;;;;8.70;1.30;;;;;;;4.09;65.94;101630.16;10513820;28;20063;-88
2021/04/05 18:03:49;;;;;;;4.75;1.05;;;;;;;3.69;66.64;101615.59;10503814;28;20032;-82
2021/04/05 18:09:17;;;;;;;15.10;1.75;;;;;;;3.34;68.14;101589.16;10503846;28;20032;-83
2021/04/05 18:14:43;;;;;;;7.03;1.30;;;;;;;3.29;68.23;101602.63;10506962;28;20028;-83
2021/04/05 18:20:20;;;;;;;9.40;1.27;;;;;;;3.21;69.18;101595.25;10535996;28;20059;-80
2021/04/05 18:25:33;;;;;;;15.32;1.98;;;;;;;3.27;69.71;101588.75;10553812;28;20517;-80
2021/04/05 18:30:48;;;;;;;13.63;2.20;;;;;;;2.95;68.80;101571.56;10517204;28;20032;-80
2021/04/05 18:36:00;;;;;;;4.82;1.45;;;;;;;2.93;69.32;101576.41;10541672;28;20096;-80
2021/04/05 18:41:01;;;;;;;13.60;2.00;;;;;;;3.15;70.18;101585.69;10535442;28;20020;-80
2021/04/05 18:46:29;;;;;;;15.80;3.45;;;;;;;3.29;71.74;101580.41;10535032;28;20036;-81
2021/04/05 18:51:35;;;;;;;12.68;3.28;;;;;;;3.24;72.56;101586.63;10530707;28;20031;-84
2021/04/05 18:56:42;;;;;;;12.60;2.80;;;;;;;3.39;68.76;101583.75;10529776;28;20133;-84
2021/04/05 19:01:45;;;;;;;15.00;2.80;;;;;;;2.93;65.27;101504.28;10511811;28;20034;-82
2021/04/05 19:07:06;;;;;;;16.33;2.40;;;;;;;3.03;63.22;101499.88;10511104;28;20042;-79
2021/04/05 19:12:44;;;;;;;10.75;2.15;;;;;;;3.71;65.52;101584.78;10550700;28;20065;-79
2021/04/05 19:18:21;;;;;;;11.68;2.33;;;;;;;3.75;65.99;101577.78;10525102;28;20051;-80
2021/04/05 19:23:36;;;;;;;13.82;2.30;;;;;;;3.80;65.23;101595.63;10520013;28;20036;-80
2021/04/05 19:28:55;;;;;;;19.42;2.80;;;;;;;2.67;62.67;101388.31;10538303;28;20027;-75
2021/04/05 19:34:30;;;;;;;21.67;3.28;;;;;;;4.03;61.44;101567.13;10539273;28;20076;-77
2021/04/05 19:40:19;;;;;;;11.02;2.33;;;;;;;4.23;62.22;101545.31;10562469;28;20115;-80
2021/04/05 19:45:26;;;;;;;19.63;2.95;;;;;;;3.66;62.01;101456.56;10520671;28;20108;-80
2021/04/05 19:50:31;;;;;;;18.20;3.28;;;;;;;4.23;61.52;101529.28;10552918;28;20477;-79
2021/04/05 19:55:44;;;;;;;20.40;3.17;;;;;;;4.45;59.44;101600.03;10533563;28;20050;-80
2021/04/05 20:00:57;;;;;;;18.67;2.95;;;;;;;4.01;82.46;101634.28;10542428;28;20264;-79
2021/04/05 20:06:12;;;;;;;10.48;2.50;;;;;;;3.32;91.48;101628.75;10558666;28;20024;-78
2021/04/05 20:11:30;;;;;;;8.07;2.08;;;;;;;2.68;99.78;101582.91;10545341;28;20055;-85
2021/04/05 20:16:44;;;;;;;7.63;1.80;;;;;;;2.39;100.00;101595.53;10542688;28;20480;-84
2021/04/05 20:21:49;;;;;;;8.52;1.33;;;;;;;2.11;100.00;101558.75;10562223;28;20090;-80
2021/04/05 20:26:50;;;;;;;9.20;1.77;;;;;;;1.44;100.00;101459.25;10540198;28;20031;-80
2021/04/05 20:32:18;;;;;;;10.63;2.40;;;;;;;2.02;100.00;101543.66;10542960;28;20035;-79
2021/04/05 20:37:51;;;;;;;19.33;5.00;;;;;;;2.11;100.00;101534.75;10511653;28;20035;-80
2021/04/05 20:43:13;;;;;;;20.73;2.83;;;;;;;2.26;100.00;101543.69;10526989;28;20069;-84
2021/04/05 20:48:41;;;;;;;20.70;4.15;;;;;;;2.58;100.00;101539.53;10556023;28;20048;-78
2021/04/05 20:54:03;;;;;;;16.15;3.00;;;;;;;2.67;100.00;101521.78;10523315;28;20077;-78
2021/04/05 20:59:09;;;;;;;15.60;3.45;;;;;;;2.66;100.00;101525.56;10522885;28;20421;-79
2021/04/05 21:04:12;;;;;;;13.57;2.70;;;;;;;2.01;100.00;101428.22;10525476;27;20050;-81
2021/04/05 21:09:13;;;;;;;10.48;2.08;;;;;;;2.06;100.00;101465.47;10539045;28;20400;-81
2021/04/05 21:14:27;;;;;;;13.77;2.53;;;;;;;2.24;100.00;101482.59;10533939;28;20054;-80
2021/04/05 21:19:37;;;;;;;12.93;2.47;;;;;;;2.54;100.00;101529.44;10517571;28;20595;-79
2021/04/05 21:24:44;;;;;;;19.52;2.80;;;;;;;2.70;100.00;101523.88;10531792;28;20510;-78
2021/04/05 21:29:53;;;;;;;18.25;2.17;;;;;;;2.70;100.00;101499.84;10509854;28;20035;-80
2021/04/05 21:34:59;;;;;;;19.73;3.67;;;;;;;2.77;100.00;101500.28;10503644;28;20035;-79
2021/04/05 21:40:16;;;;;;;18.60;2.72;;;;;;;2.94;100.00;101508.56;10553027;28;20099;-80
2021/04/05 21:45:21;;;;;;;25.42;4.00;;;;;;;2.95;100.00;101499.47;10553549;28;20391;-81
2021/04/05 21:50:29;;;;;;;24.65;4.03;;;;;;;3.08;100.00;101510.47;10451461;28;20068;-80
2021/04/05 21:55:31;;;;;;;26.75;3.80;;;;;;;3.24;98.83;101514.50;10415080;28;20646;-79
2021/04/05 22:00:38;;;;;;;27.58;3.97;;;;;;;3.37;94.44;101513.75;10434191;28;20033;-81
2021/04/05 22:05:41;;;;;;;27.95;4.60;;;;;;;3.53;94.02;101516.16;10439332;28;20032;-81
2021/04/05 22:10:43;;;;;;;26.75;4.07;;;;;;;3.55;94.17;101538.03;10449776;28;20090;-77
2021/04/05 22:15:45;;;;;;;22.45;4.20;;;;;;;3.36;96.98;101522.84;10439347;28;20389;-78
2021/04/05 22:20:52;;;;;;;13.90;2.97;;;;;;;3.17;96.85;101519.41;10516649;28;20054;-77
2021/04/05 22:25:53;;;;;;;15.55;2.28;;;;;;;3.19;94.15;101527.94;10517046;28;20045;-77
2021/04/05 22:31:03;;;;;;;13.25;2.30;;;;;;;3.20;92.39;101545.56;10534788;28;20063;-77
2021/04/05 22:36:15;;;;;;;5.40;2.13;;;;;;;2.89;93.42;101492.63;10523329;28;20024;-78
2021/04/05 22:41:31;;;;;;;10.15;1.60;;;;;;;3.03;93.14;101534.59;10539589;28;20039;-79
2021/04/05 22:46:32;;;;;;;12.15;1.40;;;;;;;3.04;93.49;101544.22;10537039;28;20027;-77
2021/04/05 22:51:34;;;;;;;20.75;3.08;;;;;;;3.04;93.75;101552.22;10499685;28;20580;-78
2021/04/05 22:56:38;;;;;;;16.52;3.42;;;;;;;2.91;94.43;101527.81;10513448;28;20035;-78
2021/04/05 23:01:39;;;;;;;15.02;2.65;;;;;;;2.70;95.14;101505.19;10537178;28;20076;-78
2021/04/05 23:06:45;;;;;;;11.18;2.58;;;;;;;3.17;95.97;101554.16;10563360;28;20061;-79
2021/04/05 23:11:48;;;;;;;16.83;3.67;;;;;;;2.83;93.96;101509.81;10550766;28;20032;-80
2021/04/05 23:16:58;;;;;;;12.07;2.47;;;;;;;3.08;92.18;101553.22;10545915;28;20044;-78
2021/04/05 23:22:05;;;;;;;12.50;2.63;;;;;;;3.22;88.83;101559.41;10547626;28;20052;-79
2021/04/05 23:27:10;;;;;;;11.65;2.28;;;;;;;3.05;88.58;101519.88;10509223;28;20080;-77
2021/04/05 23:32:12;;;;;;;13.48;1.90;;;;;;;3.34;90.20;101599.84;10560074;28;20019;-78
2021/04/05 23:37:17;;;;;;;16.10;2.30;;;;;;;2.96;94.78;101589.19;10548455;28;20032;-78
2021/04/05 23:42:19;;;;;;;15.90;2.13;;;;;;;2.67;96.45;101553.81;10558141;28;20383;-78
2021/04/05 23:47:20;;;;;;;21.33;3.53;;;;;;;2.52;98.13;101542.25;10541293;28;20035;-78
2021/04/05 23:52:21;;;;;;;18.20;3.15;;;;;;;2.71;97.67;101549.50;10544974;28;20061;-77